Time;durP1;ratioP1;P1;durP2;ratioP2;P2;SDS_P1;SDS_P2;PMS_P1;PMS_P2;Temp;Humidity;BMP_temperature;BMP_pressure;BME280_temperature;BME280_humidity;BME280_pressure;Samples;Min_cycle;Max_cycle;Signal;HPM_P1;HPM_P2
2022/01/07 00:01:35;;;;;;;31.95;11.40;;;;;;;;;;6265951;28;20052;-61
2022/01/07 00:04:36;;;;;;;32.05;12.00;;;;;;;;;;6265955;28;21614;-61
2022/01/07 00:07:37;;;;;;;33.38;12.35;;;;;;;;;;6262346;28;20076;-61
2022/01/07 00:10:38;;;;;;;30.15;11.68;;;;;;;;;;6244811;28;20671;-62
2022/01/07 00:13:39;;;;;;;34.03;12.10;;;;;;;;;;6265283;28;20040;-61
2022/01/07 00:16:40;;;;;;;28.75;11.75;;;;;;;;;;6265492;28;20705;-58
2022/01/07 00:19:41;;;;;;;37.58;12.52;;;;;;;;;;6269281;28;20045;-59
2022/01/07 00:22:44;;;;;;;29.83;11.52;;;;;;;;;;6265535;28;20049;-61
2022/01/07 00:25:44;;;;;;;33.40;12.77;;;;;;;;;;6269674;28;20091;-61
2022/01/07 00:28:45;;;;;;;58.13;18.70;;;;;;;;;;6269751;28;20056;-61
2022/01/07 00:31:46;;;;;;;66.68;21.90;;;;;;;;;;6265068;28;20045;-60
2022/01/07 00:34:46;;;;;;;80.90;26.92;;;;;;;;;;6269733;28;20061;-64
2022/01/07 00:37:48;;;;;;;82.55;27.08;;;;;;;;;;6269384;28;20048;-59
2022/01/07 00:40:49;;;;;;;73.88;24.13;;;;;;;;;;6270744;28;20052;-61
2022/01/07 00:43:50;;;;;;;62.65;23.13;;;;;;;;;;6263018;28;20044;-61
2022/01/07 00:46:51;;;;;;;63.30;21.35;;;;;;;;;;6266353;28;20325;-60
2022/01/07 00:49:52;;;;;;;67.32;22.35;;;;;;;;;;6266132;28;20084;-60
2022/01/07 00:52:53;;;;;;;67.18;23.23;;;;;;;;;;6258427;28;20041;-60
2022/01/07 00:55:53;;;;;;;74.90;23.67;;;;;;;;;;6267562;28;20131;-60
2022/01/07 00:58:54;;;;;;;62.72;21.55;;;;;;;;;;6268333;28;20039;-59
2022/01/07 01:01:55;;;;;;;68.88;23.63;;;;;;;;;;6264164;28;20131;-60
2022/01/07 01:04:55;;;;;;;67.38;23.23;;;;;;;;;;6267521;28;20448;-60
2022/01/07 01:07:56;;;;;;;59.63;21.10;;;;;;;;;;6263447;28;20124;-60
2022/01/07 01:10:57;;;;;;;63.80;23.77;;;;;;;;;;6265404;28;20040;-60
2022/01/07 01:13:58;;;;;;;72.00;23.80;;;;;;;;;;6263368;28;20580;-60
2022/01/07 01:16:59;;;;;;;62.95;22.73;;;;;;;;;;6267270;28;20044;-59
2022/01/07 01:20:00;;;;;;;62.22;22.38;;;;;;;;;;6263837;28;20134;-59
2022/01/07 01:23:01;;;;;;;59.58;22.63;;;;;;;;;;6263523;28;20045;-60
2022/01/07 01:26:02;;;;;;;65.10;21.95;;;;;;;;;;6265940;28;20415;-59
2022/01/07 01:29:03;;;;;;;66.32;25.95;;;;;;;;;;6260280;28;20155;-59
2022/01/07 01:32:04;;;;;;;67.65;23.58;;;;;;;;;;6261291;28;20052;-60
2022/01/07 01:35:07;;;;;;;69.70;24.70;;;;;;;;;;6262410;28;20053;-59
2022/01/07 01:38:07;;;;;;;;;;;;;;;;;;6269275;28;20509;-59
2022/01/07 01:41:09;;;;;;;58.05;21.50;;;;;;;;;;6262887;28;19921;-60
2022/01/07 01:44:09;;;;;;;48.50;20.37;;;;;;;;;;6262464;28;20633;-59
2022/01/07 01:47:10;;;;;;;62.70;21.40;;;;;;;;;;6267624;28;20048;-59
2022/01/07 01:50:11;;;;;;;61.38;21.13;;;;;;;;;;6262573;28;20071;-59
2022/01/07 01:53:13;;;;;;;58.47;20.67;;;;;;;;;;6261634;28;20056;-60
2022/01/07 01:56:14;;;;;;;59.72;20.60;;;;;;;;;;6264646;28;20168;-60
2022/01/07 01:59:25;;;;;;;56.10;20.13;;;;;;;;;;6262181;28;20052;-61
2022/01/07 02:02:26;;;;;;;50.40;20.52;;;;;;;;;;6258367;28;20684;-61
2022/01/07 02:05:27;;;;;;;57.92;22.00;;;;;;;;;;6263304;28;20036;-61
2022/01/07 02:08:29;;;;;;;58.40;20.95;;;;;;;;;;6242523;28;20118;-61
2022/01/07 02:11:31;;;;;;;65.97;20.63;;;;;;;;;;6263853;28;20041;-61
2022/01/07 02:14:32;;;;;;;61.53;20.17;;;;;;;;;;6263566;28;20072;-61
2022/01/07 02:17:32;;;;;;;58.45;21.27;;;;;;;;;;6263925;28;20060;-60
2022/01/07 02:20:34;;;;;;;62.58;21.58;;;;;;;;;;6267791;28;20167;-61
2022/01/07 02:23:36;;;;;;;55.63;21.77;;;;;;;;;;6263002;28;20191;-61
2022/01/07 02:26:37;;;;;;;59.58;20.63;;;;;;;;;;6265630;28;20057;-61
2022/01/07 02:29:38;;;;;;;58.78;20.77;;;;;;;;;;6265716;28;20118;-60
2022/01/07 02:32:39;;;;;;;59.67;22.45;;;;;;;;;;6267306;28;20397;-59
2022/01/07 02:35:45;;;;;;;52.15;20.50;;;;;;;;;;6270974;28;20136;-61
2022/01/07 02:38:46;;;;;;;60.47;21.70;;;;;;;;;;6270716;28;20075;-61
2022/01/07 02:41:47;;;;;;;59.88;21.08;;;;;;;;;;6267979;28;20052;-61
2022/01/07 02:44:47;;;;;;;48.92;19.77;;;;;;;;;;6270432;28;20056;-60
2022/01/07 02:50:52;;;;;;;57.10;21.63;;;;;;;;;;6266045;28;20052;-61
2022/01/07 02:53:52;;;;;;;50.60;20.50;;;;;;;;;;6267833;28;20058;-61
2022/01/07 02:56:53;;;;;;;52.50;21.05;;;;;;;;;;6268364;28;20487;-61
2022/01/07 02:59:54;;;;;;;57.70;20.38;;;;;;;;;;6267913;28;20094;-61
2022/01/07 03:02:56;;;;;;;54.72;21.63;;;;;;;;;;6262522;28;20053;-61
2022/01/07 03:05:56;;;;;;;50.72;21.10;;;;;;;;;;6268001;28;20052;-61
2022/01/07 03:08:57;;;;;;;59.40;21.23;;;;;;;;;;6267313;28;20051;-61
2022/01/07 03:11:58;;;;;;;57.05;21.42;;;;;;;;;;6262549;28;20460;-61
2022/01/07 03:14:59;;;;;;;64.22;21.55;;;;;;;;;;6267394;28;20040;-60
2022/01/07 03:17:59;;;;;;;57.10;21.08;;;;;;;;;;6267309;28;20480;-61
2022/01/07 03:21:00;;;;;;;57.60;19.80;;;;;;;;;;6265136;28;20377;-61
2022/01/07 03:24:01;;;;;;;48.92;19.40;;;;;;;;;;6269670;28;20037;-61
2022/01/07 03:27:02;;;;;;;56.63;22.65;;;;;;;;;;6263185;28;20143;-61
2022/01/07 03:30:05;;;;;;;64.40;21.77;;;;;;;;;;6250780;28;20110;-61
2022/01/07 03:33:07;;;;;;;63.03;20.67;;;;;;;;;;6263733;28;20040;-60
2022/01/07 03:36:07;;;;;;;74.47;23.45;;;;;;;;;;6269394;28;20134;-61
2022/01/07 03:39:08;;;;;;;76.88;24.27;;;;;;;;;;6268087;28;20851;-61
2022/01/07 03:42:09;;;;;;;71.93;22.33;;;;;;;;;;6262872;28;21021;-61
2022/01/07 03:45:11;;;;;;;73.00;21.95;;;;;;;;;;6264327;28;20081;-61
2022/01/07 03:48:12;;;;;;;75.78;23.33;;;;;;;;;;6266201;28;20061;-61
2022/01/07 03:51:13;;;;;;;67.20;23.13;;;;;;;;;;6265293;28;20750;-61
2022/01/07 03:54:13;;;;;;;69.95;24.65;;;;;;;;;;6263696;28;20091;-61
2022/01/07 03:57:14;;;;;;;63.05;24.55;;;;;;;;;;6265290;28;20044;-61
2022/01/07 04:00:18;;;;;;;55.65;22.05;;;;;;;;;;6262896;28;20688;-61
2022/01/07 04:03:19;;;;;;;55.88;22.63;;;;;;;;;;6267099;28;20187;-60
2022/01/07 04:06:20;;;;;;;73.35;23.95;;;;;;;;;;6265038;28;20052;-61
2022/01/07 04:09:21;;;;;;;56.97;22.25;;;;;;;;;;6270949;28;20087;-61
2022/01/07 04:12:21;;;;;;;60.92;23.48;;;;;;;;;;6281313;28;20050;-61
2022/01/07 04:15:23;;;;;;;64.90;23.40;;;;;;;;;;6284670;28;20075;-61
2022/01/07 04:18:24;;;;;;;58.07;23.37;;;;;;;;;;6287494;28;20051;-61
2022/01/07 04:21:24;;;;;;;60.15;22.88;;;;;;;;;;6285842;28;20289;-61
2022/01/07 04:24:26;;;;;;;65.20;25.90;;;;;;;;;;6280087;28;20047;-61
2022/01/07 04:27:27;;;;;;;69.68;24.48;;;;;;;;;;6280175;28;20381;-61
2022/01/07 04:30:34;;;;;;;64.88;24.45;;;;;;;;;;6275613;28;20418;-61
2022/01/07 04:33:35;;;;;;;55.95;23.25;;;;;;;;;;6279960;28;20064;-61
2022/01/07 04:36:36;;;;;;;53.00;23.77;;;;;;;;;;6278184;28;20081;-61
2022/01/07 04:39:37;;;;;;;53.75;23.80;;;;;;;;;;6277288;28;20079;-61
2022/01/07 04:42:38;;;;;;;57.03;23.50;;;;;;;;;;6280005;28;20646;-61
2022/01/07 04:45:39;;;;;;;51.22;21.85;;;;;;;;;;6281165;28;20080;-61
2022/01/07 04:48:39;;;;;;;51.13;21.55;;;;;;;;;;6282903;28;20041;-60
2022/01/07 04:51:40;;;;;;;50.22;20.48;;;;;;;;;;6287078;28;20045;-61
2022/01/07 04:54:41;;;;;;;57.22;21.58;;;;;;;;;;6287658;28;20516;-60
2022/01/07 04:57:43;;;;;;;43.47;20.98;;;;;;;;;;6285768;28;20105;-60
2022/01/07 05:00:44;;;;;;;58.15;24.35;;;;;;;;;;6282551;28;20040;-61
2022/01/07 05:03:44;;;;;;;52.88;23.63;;;;;;;;;;6277793;28;20579;-60
2022/01/07 05:06:45;;;;;;;51.47;22.67;;;;;;;;;;6276648;28;20118;-61
2022/01/07 05:09:46;;;;;;;53.70;22.38;;;;;;;;;;6284151;28;20040;-61
2022/01/07 05:12:47;;;;;;;57.55;22.90;;;;;;;;;;6286756;28;20036;-60
2022/01/07 05:15:47;;;;;;;64.63;24.77;;;;;;;;;;6283322;28;20041;-60
2022/01/07 05:18:48;;;;;;;59.33;22.90;;;;;;;;;;6273707;28;20532;-60
2022/01/07 05:21:49;;;;;;;62.67;24.60;;;;;;;;;;6276062;28;20140;-60
2022/01/07 05:24:49;;;;;;;79.55;29.65;;;;;;;;;;6280153;28;20049;-61
2022/01/07 05:27:50;;;;;;;94.10;36.67;;;;;;;;;;6282298;28;20266;-60
2022/01/07 05:30:50;;;;;;;86.30;33.22;;;;;;;;;;6267583;28;20052;-60
2022/01/07 05:33:54;;;;;;;80.78;33.42;;;;;;;;;;6261525;28;20504;-60
2022/01/07 05:36:54;;;;;;;98.40;39.50;;;;;;;;;;6258315;28;20056;-61
2022/01/07 05:39:57;;;;;;;106.65;47.05;;;;;;;;;;6250352;28;20057;-61
2022/01/07 05:42:57;;;;;;;96.57;39.80;;;;;;;;;;6247486;28;20053;-61
2022/01/07 05:45:58;;;;;;;89.70;34.80;;;;;;;;;;6253381;28;20042;-60
2022/01/07 05:48:59;;;;;;;81.90;29.55;;;;;;;;;;6254945;28;20136;-61
2022/01/07 05:51:59;;;;;;;94.00;28.77;;;;;;;;;;6264156;28;20045;-61
2022/01/07 05:55:00;;;;;;;144.95;39.17;;;;;;;;;;6268330;28;20406;-61
2022/01/07 05:58:01;;;;;;;112.82;32.17;;;;;;;;;;6263836;28;20068;-61
2022/01/07 06:01:04;;;;;;;119.28;33.70;;;;;;;;;;6253336;28;20144;-61
2022/01/07 06:04:05;;;;;;;142.20;33.45;;;;;;;;;;6255697;28;20083;-61
2022/01/07 06:07:06;;;;;;;176.52;42.03;;;;;;;;;;6255849;28;20048;-60
2022/01/07 06:10:08;;;;;;;136.57;35.35;;;;;;;;;;6254550;28;20049;-60
2022/01/07 06:13:09;;;;;;;119.57;34.90;;;;;;;;;;6255051;28;20041;-60
2022/01/07 06:16:09;;;;;;;64.45;22.60;;;;;;;;;;6254553;28;20159;-61
2022/01/07 06:19:10;;;;;;;57.17;23.13;;;;;;;;;;6257370;28;20123;-61
2022/01/07 06:22:11;;;;;;;62.50;26.83;;;;;;;;;;6256201;28;20053;-61
2022/01/07 06:25:12;;;;;;;84.30;31.13;;;;;;;;;;6252456;28;20049;-61
2022/01/07 06:28:12;;;;;;;94.75;31.42;;;;;;;;;;6256288;28;20527;-60
2022/01/07 06:31:13;;;;;;;59.28;24.05;;;;;;;;;;6275489;28;20127;-61
2022/01/07 06:34:14;;;;;;;54.13;22.88;;;;;;;;;;6280000;28;20519;-60
2022/01/07 06:37:14;;;;;;;67.45;27.40;;;;;;;;;;6279881;28;20044;-61
2022/01/07 06:40:15;;;;;;;59.22;24.58;;;;;;;;;;6276882;28;20048;-61
2022/01/07 06:43:16;;;;;;;59.67;23.20;;;;;;;;;;6280535;28;20048;-61
2022/01/07 06:46:17;;;;;;;55.53;20.98;;;;;;;;;;6280672;28;20550;-61
2022/01/07 06:49:17;;;;;;;52.50;21.45;;;;;;;;;;6281247;28;20044;-60
2022/01/07 06:52:18;;;;;;;54.83;22.75;;;;;;;;;;6280814;28;20190;-64
2022/01/07 06:55:19;;;;;;;47.63;21.88;;;;;;;;;;6280063;28;20433;-61
2022/01/07 06:58:19;;;;;;;59.17;22.90;;;;;;;;;;6282097;28;20048;-61
2022/01/07 07:01:20;;;;;;;51.60;21.98;;;;;;;;;;6285946;28;20105;-61
2022/01/07 07:04:21;;;;;;;55.22;23.48;;;;;;;;;;6287363;28;20067;-61
2022/01/07 07:07:22;;;;;;;59.78;25.73;;;;;;;;;;6281243;28;20129;-61
2022/01/07 07:10:22;;;;;;;64.03;24.83;;;;;;;;;;6265772;28;20484;-60
2022/01/07 07:13:23;;;;;;;66.35;27.17;;;;;;;;;;6268232;28;20519;-61
2022/01/07 07:16:25;;;;;;;76.43;31.27;;;;;;;;;;6271142;28;20500;-62
2022/01/07 07:19:25;;;;;;;112.53;41.67;;;;;;;;;;6265973;28;20045;-61
2022/01/07 07:22:26;;;;;;;105.53;41.75;;;;;;;;;;6278063;28;20510;-61
2022/01/07 07:25:27;;;;;;;109.35;43.13;;;;;;;;;;6284324;28;20059;-61
2022/01/07 07:28:27;;;;;;;90.85;37.50;;;;;;;;;;6281938;28;20047;-61
2022/01/07 07:31:30;;;;;;;78.00;32.47;;;;;;;;;;6290387;28;20083;-61
2022/01/07 07:34:56;;;;;;;;;;;;;;;;;;6288843;28;20040;-61
2022/01/07 07:37:54;;;;;;;85.70;34.55;;;;;;;;;;6287617;28;19925;-62
2022/01/07 07:40:55;;;;;;;82.78;34.72;;;;;;;;;;6289279;28;20045;-62
2022/01/07 07:43:57;;;;;;;98.38;36.58;;;;;;;;;;6290312;28;20363;-62
2022/01/07 07:46:58;;;;;;;91.80;35.90;;;;;;;;;;6283261;28;20101;-63
2022/01/07 07:49:58;;;;;;;95.97;37.80;;;;;;;;;;6278908;28;20045;-62
2022/01/07 07:52:59;;;;;;;90.75;35.08;;;;;;;;;;6277497;28;20132;-61
2022/01/07 07:55:59;;;;;;;77.57;32.30;;;;;;;;;;6279559;28;20139;-60
2022/01/07 07:59:00;;;;;;;82.82;35.10;;;;;;;;;;6273086;28;20048;-61
2022/01/07 08:02:02;;;;;;;79.63;35.95;;;;;;;;;;6278425;28;20491;-60
2022/01/07 08:05:03;;;;;;;88.55;36.05;;;;;;;;;;6283030;28;20078;-61
2022/01/07 08:08:04;;;;;;;84.30;38.83;;;;;;;;;;6277442;28;20048;-61
2022/01/07 08:11:05;;;;;;;88.38;37.17;;;;;;;;;;6283048;28;20044;-61
2022/01/07 08:17:25;;;;;;;93.47;42.42;;;;;;;;;;6274831;28;20071;-60
2022/01/07 08:20:26;;;;;;;136.85;55.97;;;;;;;;;;6282466;28;21412;-61
2022/01/07 08:23:27;;;;;;;243.13;93.32;;;;;;;;;;6282632;28;20099;-61
2022/01/07 08:26:28;;;;;;;469.85;165.98;;;;;;;;;;6276891;28;20055;-60
2022/01/07 08:29:31;;;;;;;485.67;174.40;;;;;;;;;;6271488;28;20059;-60
2022/01/07 08:35:59;;;;;;;176.15;63.78;;;;;;;;;;6249795;28;20075;-60
2022/01/07 08:39:00;;;;;;;132.88;51.60;;;;;;;;;;6277212;28;20431;-65
2022/01/07 08:42:01;;;;;;;135.75;55.03;;;;;;;;;;6273393;28;20064;-61
2022/01/07 08:45:02;;;;;;;71.25;27.98;;;;;;;;;;6276352;28;20048;-61
2022/01/07 08:48:03;;;;;;;74.60;35.00;;;;;;;;;;6280225;28;20051;-61
2022/01/07 08:51:05;;;;;;;58.30;25.15;;;;;;;;;;6279445;28;20143;-61
2022/01/07 08:54:07;;;;;;;45.00;20.77;;;;;;;;;;6286897;28;20475;-60
2022/01/07 08:57:07;;;;;;;48.50;21.77;;;;;;;;;;6285423;28;20094;-60
2022/01/07 09:00:09;;;;;;;47.67;23.23;;;;;;;;;;6283126;28;20049;-61
2022/01/07 09:03:09;;;;;;;52.08;22.98;;;;;;;;;;6272363;28;20040;-60
2022/01/07 09:06:10;;;;;;;43.28;17.70;;;;;;;;;;6276121;28;20053;-61
2022/01/07 09:09:10;;;;;;;36.33;17.55;;;;;;;;;;6273312;28;20491;-61
2022/01/07 09:12:11;;;;;;;38.63;16.40;;;;;;;;;;6276371;28;20124;-61
2022/01/07 09:15:12;;;;;;;37.90;16.80;;;;;;;;;;6271761;28;20151;-61
2022/01/07 09:18:14;;;;;;;43.35;18.20;;;;;;;;;;6276080;28;20147;-61
2022/01/07 09:21:15;;;;;;;34.28;13.63;;;;;;;;;;6279274;28;20041;-61
2022/01/07 09:24:16;;;;;;;35.13;14.15;;;;;;;;;;6276148;28;20470;-61
2022/01/07 09:27:16;;;;;;;36.88;14.90;;;;;;;;;;6284563;28;20037;-60
2022/01/07 09:30:17;;;;;;;34.15;14.63;;;;;;;;;;6282379;28;20056;-61
2022/01/07 09:33:18;;;;;;;39.28;15.18;;;;;;;;;;6282493;28;20048;-61
2022/01/07 09:36:18;;;;;;;36.85;14.90;;;;;;;;;;6283592;28;20484;-61
2022/01/07 09:39:19;;;;;;;41.88;15.00;;;;;;;;;;6278614;28;20049;-61
2022/01/07 09:42:20;;;;;;;38.60;14.98;;;;;;;;;;6281726;28;20499;-62
2022/01/07 09:45:23;;;;;;;38.15;16.73;;;;;;;;;;6282179;28;20439;-61
2022/01/07 09:48:24;;;;;;;41.17;15.70;;;;;;;;;;6282313;28;20040;-60
2022/01/07 09:51:26;;;;;;;42.97;17.15;;;;;;;;;;6280161;28;20132;-61
2022/01/07 09:54:27;;;;;;;43.78;17.75;;;;;;;;;;6280763;28;20549;-62
2022/01/07 09:57:27;;;;;;;42.50;18.05;;;;;;;;;;6282459;28;20099;-60
2022/01/07 10:00:43;;;;;;;38.05;16.05;;;;;;;;;;6281895;28;20041;-62
2022/01/07 10:03:44;;;;;;;41.55;17.60;;;;;;;;;;6278810;28;20103;-62
2022/01/07 10:06:45;;;;;;;40.57;16.30;;;;;;;;;;6282216;28;20068;-62
2022/01/07 10:10:11;;;;;;;39.28;16.85;;;;;;;;;;6283533;28;20071;-60
2022/01/07 10:13:17;;;;;;;37.95;15.90;;;;;;;;;;6280386;28;20044;-62
2022/01/07 10:16:20;;;;;;;38.45;15.57;;;;;;;;;;6277754;28;20913;-61
2022/01/07 10:19:28;;;;;;;36.72;16.00;;;;;;;;;;6279809;28;20448;-61
2022/01/07 10:22:29;;;;;;;42.85;18.30;;;;;;;;;;6282039;28;20051;-61
2022/01/07 10:25:32;;;;;;;42.28;16.17;;;;;;;;;;6281667;28;20045;-61
2022/01/07 10:28:34;;;;;;;42.70;16.92;;;;;;;;;;6281702;28;20411;-62
2022/01/07 10:31:34;;;;;;;36.85;16.58;;;;;;;;;;6281121;28;20088;-61
2022/01/07 10:34:35;;;;;;;44.42;18.45;;;;;;;;;;6281250;28;20040;-61
2022/01/07 10:37:45;;;;;;;36.78;15.20;;;;;;;;;;6281889;28;20135;-62
2022/01/07 10:40:48;;;;;;;38.33;16.10;;;;;;;;;;6279609;28;20139;-61
2022/01/07 10:43:51;;;;;;;46.17;16.95;;;;;;;;;;6282395;28;20068;-61
2022/01/07 10:46:52;;;;;;;;;;;;;;;;;;6280524;28;20079;-60
2022/01/07 10:50:22;;;;;;;32.95;14.05;;;;;;;;;;6277365;28;19936;-60
2022/01/07 10:53:28;;;;;;;33.50;13.20;;;;;;;;;;6277715;28;20049;-60
2022/01/07 10:56:32;;;;;;;34.15;14.13;;;;;;;;;;6276360;28;20078;-62
2022/01/07 10:59:32;;;;;;;30.25;12.90;;;;;;;;;;6279682;28;20554;-62
2022/01/07 11:02:34;;;;;;;28.63;11.90;;;;;;;;;;6279463;28;20191;-61
2022/01/07 11:05:35;;;;;;;38.72;13.45;;;;;;;;;;6277625;28;20143;-61
2022/01/07 11:08:35;;;;;;;35.60;12.73;;;;;;;;;;6279800;28;20055;-61
2022/01/07 11:11:45;;;;;;;34.45;12.68;;;;;;;;;;6279749;28;20128;-61
2022/01/07 11:14:45;;;;;;;33.95;11.85;;;;;;;;;;6282809;28;20059;-60
2022/01/07 11:17:46;;;;;;;26.77;9.15;;;;;;;;;;6281947;28;20088;-62
2022/01/07 11:20:47;;;;;;;28.05;10.65;;;;;;;;;;6278658;28;20478;-62
2022/01/07 11:23:47;;;;;;;26.10;9.55;;;;;;;;;;6283761;28;20060;-62
2022/01/07 11:26:59;;;;;;;21.88;9.02;;;;;;;;;;6284724;28;20475;-62
2022/01/07 11:30:02;;;;;;;23.92;7.38;;;;;;;;;;6278972;28;20040;-62
2022/01/07 11:33:19;;;;;;;16.88;5.97;;;;;;;;;;6280345;28;20040;-63
2022/01/07 11:36:37;;;;;;;14.82;6.40;;;;;;;;;;6279388;28;20068;-62
2022/01/07 11:39:42;;;;;;;16.63;5.40;;;;;;;;;;6279423;28;20044;-60
2022/01/07 11:42:47;;;;;;;11.98;4.55;;;;;;;;;;6280694;28;20033;-62
2022/01/07 11:45:48;;;;;;;11.30;4.22;;;;;;;;;;6280701;28;20164;-62
2022/01/07 11:48:49;;;;;;;12.35;3.97;;;;;;;;;;6277347;28;20104;-60
2022/01/07 11:51:50;;;;;;;14.23;4.80;;;;;;;;;;6282477;28;20083;-61
2022/01/07 11:55:20;;;;;;;13.30;4.82;;;;;;;;;;6272748;28;20488;-62
2022/01/07 11:58:37;;;;;;;9.73;3.40;;;;;;;;;;6266433;28;20094;-63
2022/01/07 12:01:40;;;;;;;30.92;17.15;;;;;;;;;;6278274;28;21506;-62
2022/01/07 12:04:40;;;;;;;;;;;;;;;;;;6283655;28;20076;-62
2022/01/07 12:07:48;;;;;;;8.52;3.08;;;;;;;;;;6277409;28;19928;-62
2022/01/07 12:11:06;;;;;;;8.57;2.90;;;;;;;;;;6279422;28;20069;-62
2022/01/07 12:14:12;;;;;;;9.40;3.92;;;;;;;;;;6278784;28;20106;-63
2022/01/07 12:17:15;;;;;;;8.95;3.88;;;;;;;;;;6273048;28;20044;-62
2022/01/07 12:20:46;;;;;;;10.80;3.90;;;;;;;;;;6278863;28;20048;-63
2022/01/07 12:23:47;;;;;;;13.57;4.13;;;;;;;;;;6278951;28;20145;-62
2022/01/07 12:27:04;;;;;;;12.10;4.28;;;;;;;;;;6275902;28;20048;-62
2022/01/07 12:30:06;;;;;;;10.73;3.80;;;;;;;;;;6274807;28;20059;-62
2022/01/07 12:33:08;;;;;;;8.18;3.38;;;;;;;;;;6278975;28;20587;-61
2022/01/07 12:36:08;;;;;;;11.77;3.70;;;;;;;;;;6276523;28;20514;-62
2022/01/07 12:39:09;;;;;;;10.25;3.63;;;;;;;;;;6275266;28;20461;-62
2022/01/07 12:42:10;;;;;;;9.68;3.47;;;;;;;;;;6277704;28;20060;-62
2022/01/07 12:45:17;;;;;;;8.13;3.03;;;;;;;;;;6278338;28;20399;-62
2022/01/07 12:48:18;;;;;;;8.85;3.17;;;;;;;;;;6257364;28;20488;-62
2022/01/07 12:51:21;;;;;;;7.57;2.53;;;;;;;;;;6271379;28;20037;-61
2022/01/07 12:54:22;;;;;;;7.03;2.75;;;;;;;;;;6267624;28;20071;-61
2022/01/07 12:57:47;;;;;;;8.77;3.40;;;;;;;;;;6266048;28;20049;-62
2022/01/07 13:00:48;;;;;;;15.68;7.18;;;;;;;;;;6251488;28;20051;-61
2022/01/07 13:04:03;;;;;;;13.80;5.63;;;;;;;;;;6261738;28;20062;-61
2022/01/07 13:07:06;;;;;;;12.05;5.70;;;;;;;;;;6262623;28;20176;-61
2022/01/07 13:10:06;;;;;;;;;;;;;;;;;;6263431;28;20619;-62
2022/01/07 13:13:24;;;;;;;8.70;3.03;;;;;;;;;;6264823;28;20023;-62
2022/01/07 13:16:24;;;;;;;8.07;3.05;;;;;;;;;;6268889;28;20120;-61
2022/01/07 13:19:27;;;;;;;8.40;2.83;;;;;;;;;;6267924;28;20048;-61
2022/01/07 13:22:28;;;;;;;6.55;2.45;;;;;;;;;;6262650;28;20040;-61
2022/01/07 13:25:29;;;;;;;10.25;3.28;;;;;;;;;;6266727;28;20598;-61
2022/01/07 13:28:41;;;;;;;9.75;3.38;;;;;;;;;;6263312;28;20056;-61
2022/01/07 13:31:46;;;;;;;37.42;10.80;;;;;;;;;;6270159;28;20095;-61
2022/01/07 13:34:47;;;;;;;28.45;9.20;;;;;;;;;;6268954;28;20067;-61
2022/01/07 13:37:48;;;;;;;16.95;5.00;;;;;;;;;;6263996;28;20044;-61
2022/01/07 13:40:50;;;;;;;12.35;4.03;;;;;;;;;;6264422;28;20040;-61
2022/01/07 13:43:50;;;;;;;30.85;8.75;;;;;;;;;;6249968;28;20080;-61
2022/01/07 13:46:54;;;;;;;28.33;8.85;;;;;;;;;;6260276;28;20101;-61
2022/01/07 13:50:17;;;;;;;17.83;5.78;;;;;;;;;;6260911;28;20072;-61
2022/01/07 13:53:19;;;;;;;;;;;;;;;;;;6266582;28;20431;-61
2022/01/07 13:56:19;;;;;;;20.35;7.82;;;;;;;;;;6271836;28;20011;-60
2022/01/07 13:59:20;;;;;;;19.75;8.68;;;;;;;;;;6266201;28;20037;-61
2022/01/07 14:02:31;;;;;;;17.42;5.65;;;;;;;;;;6267699;28;20044;-60
2022/01/07 14:05:31;;;;;;;24.92;8.60;;;;;;;;;;6261708;28;20530;-61
2022/01/07 14:08:32;;;;;;;68.32;22.02;;;;;;;;;;6261367;28;20060;-63
2022/01/07 14:11:33;;;;;;;195.73;68.35;;;;;;;;;;6264330;28;20139;-61
2022/01/07 14:14:39;;;;;;;241.73;81.45;;;;;;;;;;6267317;28;20045;-62
2022/01/07 14:17:41;;;;;;;153.05;55.78;;;;;;;;;;6267468;28;20087;-62
2022/01/07 14:21:00;;;;;;;76.13;27.70;;;;;;;;;;6270374;28;20099;-62
2022/01/07 14:24:01;;;;;;;73.25;30.83;;;;;;;;;;6268289;28;20040;-61
2022/01/07 14:27:06;;;;;;;83.47;30.58;;;;;;;;;;6271103;28;20053;-60
2022/01/07 14:30:09;;;;;;;56.15;21.17;;;;;;;;;;6270469;28;20641;-62
2022/01/07 14:33:10;;;;;;;46.72;17.55;;;;;;;;;;6269459;28;20079;-62
2022/01/07 14:36:11;;;;;;;43.08;16.77;;;;;;;;;;6268641;28;20143;-61
2022/01/07 14:39:12;;;;;;;69.65;23.75;;;;;;;;;;6275398;28;20171;-61
2022/01/07 14:42:12;;;;;;;73.07;29.45;;;;;;;;;;6277749;28;20052;-62
2022/01/07 14:45:13;;;;;;;70.95;25.27;;;;;;;;;;6286840;28;20103;-59
2022/01/07 14:48:14;;;;;;;75.00;26.38;;;;;;;;;;6279094;28;20483;-61
2022/01/07 14:51:15;;;;;;;78.18;26.27;;;;;;;;;;6281792;28;20056;-61
2022/01/07 14:54:16;;;;;;;85.40;29.27;;;;;;;;;;6279750;28;20570;-61
2022/01/07 14:57:17;;;;;;;78.72;27.67;;;;;;;;;;6284887;28;20053;-61
2022/01/07 15:00:20;;;;;;;84.38;30.13;;;;;;;;;;6279031;28;20146;-61
2022/01/07 15:03:21;;;;;;;100.13;32.95;;;;;;;;;;6279412;28;20510;-61
2022/01/07 15:06:21;;;;;;;93.35;35.55;;;;;;;;;;6278383;28;20052;-61
2022/01/07 15:09:22;;;;;;;99.10;35.88;;;;;;;;;;6278721;28;20136;-61
2022/01/07 15:12:23;;;;;;;84.93;33.65;;;;;;;;;;6278004;28;20107;-61
2022/01/07 15:18:43;;;;;;;81.15;31.73;;;;;;;;;;6279397;28;20036;-62
2022/01/07 15:21:45;;;;;;;92.63;34.50;;;;;;;;;;6277216;28;20071;-61
2022/01/07 15:24:46;;;;;;;115.40;41.85;;;;;;;;;;6278425;28;20404;-61
2022/01/07 15:27:47;;;;;;;207.35;66.50;;;;;;;;;;6278709;28;20044;-60
2022/01/07 15:30:47;;;;;;;185.20;64.10;;;;;;;;;;6279066;28;20190;-61
2022/01/07 15:33:49;;;;;;;127.85;52.72;;;;;;;;;;6279723;28;20741;-61
2022/01/07 15:36:51;;;;;;;118.57;49.17;;;;;;;;;;6278163;28;20044;-61
2022/01/07 15:39:52;;;;;;;95.60;39.13;;;;;;;;;;6276668;28;20900;-61
2022/01/07 15:42:52;;;;;;;78.15;33.47;;;;;;;;;;6279781;28;20048;-61
2022/01/07 15:45:54;;;;;;;66.60;28.45;;;;;;;;;;6273106;28;20397;-61
2022/01/07 15:48:54;;;;;;;96.65;35.65;;;;;;;;;;6280469;28;20075;-61
2022/01/07 15:51:55;;;;;;;82.57;31.95;;;;;;;;;;6281144;28;20484;-61
2022/01/07 15:54:57;;;;;;;99.53;36.88;;;;;;;;;;6277443;28;20543;-61
2022/01/07 15:57:58;;;;;;;93.63;36.15;;;;;;;;;;6279797;28;20526;-61
2022/01/07 16:00:59;;;;;;;82.00;33.08;;;;;;;;;;6277676;28;20048;-61
2022/01/07 16:03:59;;;;;;;112.05;44.00;;;;;;;;;;6275195;28;20057;-61
2022/01/07 16:07:00;;;;;;;90.60;33.22;;;;;;;;;;6278285;28;20207;-67
2022/01/07 16:10:01;;;;;;;89.50;33.72;;;;;;;;;;6261669;28;20084;-61
2022/01/07 16:13:02;;;;;;;102.18;40.90;;;;;;;;;;6265520;28;20041;-61
2022/01/07 16:16:03;;;;;;;91.70;36.70;;;;;;;;;;6263274;28;20049;-61
2022/01/07 16:19:04;;;;;;;90.63;34.42;;;;;;;;;;6260526;28;20416;-61
2022/01/07 16:22:05;;;;;;;75.88;27.10;;;;;;;;;;6258449;28;20052;-60
2022/01/07 16:25:07;;;;;;;85.90;30.48;;;;;;;;;;6259823;28;20085;-61
2022/01/07 16:28:08;;;;;;;94.60;35.15;;;;;;;;;;6259878;28;20040;-61
2022/01/07 16:31:09;;;;;;;101.65;39.45;;;;;;;;;;6255808;28;20040;-61
2022/01/07 16:34:10;;;;;;;112.60;40.92;;;;;;;;;;6261512;28;20064;-61
2022/01/07 16:37:10;;;;;;;102.93;37.83;;;;;;;;;;6263230;28;20403;-60
2022/01/07 16:40:13;;;;;;;86.13;33.97;;;;;;;;;;6260920;28;20844;-61
2022/01/07 16:43:13;;;;;;;85.18;33.00;;;;;;;;;;6266338;28;20088;-61
2022/01/07 16:46:18;;;;;;;96.68;37.03;;;;;;;;;;6257882;28;20065;-60
2022/01/07 16:49:19;;;;;;;106.88;40.72;;;;;;;;;;6260034;28;20044;-61
2022/01/07 16:52:21;;;;;;;94.65;33.47;;;;;;;;;;6263438;28;20066;-60
2022/01/07 16:55:21;;;;;;;92.05;33.47;;;;;;;;;;6265016;28;20048;-61
2022/01/07 16:58:22;;;;;;;94.50;32.85;;;;;;;;;;6261001;28;20583;-61
2022/01/07 17:01:25;;;;;;;107.38;40.40;;;;;;;;;;6258810;28;20053;-62
2022/01/07 17:04:26;;;;;;;130.95;46.08;;;;;;;;;;6260560;28;20556;-62
2022/01/07 17:07:27;;;;;;;119.23;40.17;;;;;;;;;;6260950;28;20056;-60
2022/01/07 17:10:28;;;;;;;88.82;34.50;;;;;;;;;;6258144;28;20358;-60
2022/01/07 17:13:29;;;;;;;96.88;36.97;;;;;;;;;;6262362;28;21544;-59
2022/01/07 17:16:30;;;;;;;83.15;32.72;;;;;;;;;;6263422;28;20609;-60
2022/01/07 17:19:31;;;;;;;99.47;38.00;;;;;;;;;;6261404;28;20655;-66
2022/01/07 17:22:31;;;;;;;100.90;38.28;;;;;;;;;;6262905;28;20084;-61
2022/01/07 17:25:32;;;;;;;118.20;39.53;;;;;;;;;;6264520;28;20059;-61
2022/01/07 17:28:33;;;;;;;212.93;56.75;;;;;;;;;;6261836;28;20898;-61
2022/01/07 17:31:33;;;;;;;226.50;63.72;;;;;;;;;;6261091;28;20040;-59
2022/01/07 17:34:34;;;;;;;232.40;64.57;;;;;;;;;;6261045;28;20044;-62
2022/01/07 17:37:35;;;;;;;181.70;53.13;;;;;;;;;;6262582;28;20071;-62
2022/01/07 17:40:36;;;;;;;187.13;54.33;;;;;;;;;;6262196;28;20115;-60
2022/01/07 17:43:36;;;;;;;208.95;57.97;;;;;;;;;;6263666;28;20048;-60
2022/01/07 17:46:37;;;;;;;190.57;53.38;;;;;;;;;;6265332;28;20106;-60
2022/01/07 17:49:38;;;;;;;126.38;43.30;;;;;;;;;;6264433;28;20033;-60
2022/01/07 17:52:39;;;;;;;113.18;38.65;;;;;;;;;;6268037;28;20060;-59
2022/01/07 17:55:40;;;;;;;88.97;34.20;;;;;;;;;;6269458;28;20495;-60